Time;durP1;ratioP1;P1;durP2;ratioP2;P2;SDS_P1;SDS_P2;PMS_P1;PMS_P2;Temp;Humidity;BMP_temperature;BMP_pressure;BME280_temperature;BME280_humidity;BME280_pressure;Samples;Min_cycle;Max_cycle;Signal;HPM_P1;HPM_P2
2024/02/06 00:02:20;;;;;;;0.10;0.10;;;;;;;12.71;71.08;100102.53;7368601;19;20016;-64
2024/02/06 00:04:46;;;;;;;0.17;0.17;;;;;;;12.67;71.20;100106.19;7369427;19;20506;-64
2024/02/06 00:07:11;;;;;;;0.10;0.10;;;;;;;12.73;70.87;100114.66;7366288;19;20017;-64
2024/02/06 00:09:37;;;;;;;0.10;0.10;;;;;;;12.79;70.79;100112.72;7369376;19;20019;-65
2024/02/06 00:12:03;;;;;;;0.10;0.10;;;;;;;12.79;71.05;100118.78;7370196;19;20010;-64
2024/02/06 00:14:28;;;;;;;0.10;0.10;;;;;;;12.81;70.96;100116.94;7374775;19;20019;-64
2024/02/06 00:16:54;;;;;;;0.10;0.10;;;;;;;12.81;71.53;100121.34;7369125;19;20992;-64
2024/02/06 00:19:19;;;;;;;0.10;0.10;;;;;;;12.79;71.39;100113.56;7368661;19;20014;-64
2024/02/06 00:21:45;;;;;;;0.10;0.10;;;;;;;12.78;71.40;100116.25;7367943;19;20031;-64
2024/02/06 00:24:10;;;;;;;0.10;0.10;;;;;;;12.73;72.02;100112.03;7370980;19;20486;-64
2024/02/06 00:26:36;;;;;;;0.10;0.10;;;;;;;12.72;71.80;100101.59;7370612;19;20006;-64
2024/02/06 00:29:01;;;;;;;0.10;0.10;;;;;;;12.73;71.75;100104.19;7367851;19;20033;-64
2024/02/06 00:31:27;;;;;;;0.10;0.10;;;;;;;12.66;71.81;100097.47;7371403;19;20514;-64
2024/02/06 00:33:53;;;;;;;0.10;0.10;;;;;;;12.71;71.64;100106.00;7367744;19;20006;-64
2024/02/06 00:36:18;;;;;;;0.10;0.10;;;;;;;12.72;71.61;100092.00;7367073;19;20007;-64
2024/02/06 00:38:44;;;;;;;0.10;0.10;;;;;;;12.64;71.31;100073.13;7366749;19;20398;-64
2024/02/06 00:41:11;;;;;;;0.10;0.10;;;;;;;12.70;71.56;100080.72;7368327;19;20013;-64
2024/02/06 00:43:37;;;;;;;0.15;0.15;;;;;;;12.69;70.96;100075.56;7368486;19;20011;-64
2024/02/06 00:46:02;;;;;;;0.10;0.10;;;;;;;12.69;71.02;100086.88;7366997;19;20022;-64
2024/02/06 00:48:27;;;;;;;0.10;0.10;;;;;;;12.72;71.33;100083.25;7367921;19;20033;-64
2024/02/06 00:50:53;;;;;;;0.10;0.10;;;;;;;12.71;71.09;100064.09;7365492;19;20418;-64
2024/02/06 00:53:18;;;;;;;0.17;0.17;;;;;;;12.71;70.98;100069.31;7367857;19;20017;-64
2024/02/06 00:55:44;;;;;;;0.00;0.00;;;;;;;12.72;70.48;100065.81;7366589;19;20443;-64
2024/02/06 00:58:09;;;;;;;0.10;0.10;;;;;;;12.48;70.79;100014.44;7367660;19;20018;-64
2024/02/06 01:00:35;;;;;;;0.10;0.10;;;;;;;12.76;70.36;100065.66;7368466;19;20862;-64
2024/02/06 01:03:01;;;;;;;0.10;0.10;;;;;;;12.73;70.48;100035.22;7366068;19;20014;-64
2024/02/06 01:05:27;;;;;;;0.10;0.10;;;;;;;12.76;70.03;100039.47;7365984;19;20006;-64
2024/02/06 01:07:53;;;;;;;0.10;0.10;;;;;;;12.75;70.62;100033.38;7365783;19;20036;-64
2024/02/06 01:10:18;;;;;;;0.10;0.10;;;;;;;12.71;70.42;100022.16;7369640;19;20656;-64
2024/02/06 01:12:44;;;;;;;0.10;0.10;;;;;;;12.73;70.33;100030.81;7370583;19;20007;-64
2024/02/06 01:15:09;;;;;;;0.10;0.10;;;;;;;12.70;70.14;100037.97;7366011;19;20409;-64
2024/02/06 01:17:34;;;;;;;0.10;0.10;;;;;;;12.75;69.95;100019.44;7363441;19;20006;-64
2024/02/06 01:20:00;;;;;;;0.17;0.17;;;;;;;12.71;70.40;100027.41;7363845;19;20040;-64
2024/02/06 01:22:26;;;;;;;0.20;0.20;;;;;;;12.69;70.85;100033.63;7366398;19;20010;-64
2024/02/06 01:24:51;;;;;;;0.10;0.10;;;;;;;12.67;70.92;100024.97;7363977;19;20018;-64
2024/02/06 01:27:17;;;;;;;0.20;0.20;;;;;;;12.64;71.01;100019.88;7366334;19;20015;-64
2024/02/06 01:29:42;;;;;;;0.20;0.20;;;;;;;12.63;71.14;100010.34;7366664;19;20033;-64
2024/02/06 01:32:08;;;;;;;0.20;0.20;;;;;;;12.60;70.86;99998.19;7365762;19;20037;-64
2024/02/06 01:34:33;;;;;;;0.10;0.10;;;;;;;12.40;71.01;99977.22;7364772;19;20013;-64
2024/02/06 01:36:59;;;;;;;0.10;0.10;;;;;;;12.45;71.00;99963.03;7363844;19;20542;-64
2024/02/06 01:39:24;;;;;;;0.10;0.10;;;;;;;12.58;70.65;99984.31;7365825;19;20028;-64
2024/02/06 01:41:49;;;;;;;0.10;0.10;;;;;;;12.56;71.39;99988.75;7366105;19;20092;-64
2024/02/06 01:44:15;;;;;;;0.10;0.10;;;;;;;12.56;71.39;100014.94;7367368;19;20013;-64
2024/02/06 01:46:40;;;;;;;0.10;0.10;;;;;;;12.46;71.21;99948.16;7365548;19;20036;-64
2024/02/06 01:49:08;;;;;;;0.20;0.20;;;;;;;12.55;71.51;99954.78;7366072;19;20129;-64
2024/02/06 01:51:37;;;;;;;0.10;0.10;;;;;;;12.56;71.12;99965.19;7367096;19;20015;-64
2024/02/06 01:54:03;;;;;;;0.10;0.10;;;;;;;12.55;71.55;99942.53;7366333;19;20002;-64
2024/02/06 01:56:30;;;;;;;0.10;0.10;;;;;;;12.55;71.13;99937.31;7364823;19;20014;-64
2024/02/06 01:58:55;;;;;;;0.10;0.10;;;;;;;12.58;71.48;99933.72;7364942;19;20797;-64
2024/02/06 02:01:22;;;;;;;0.10;0.10;;;;;;;12.59;71.41;99941.50;7366011;19;20032;-64
2024/02/06 02:03:50;;;;;;;0.10;0.10;;;;;;;12.61;71.42;99931.78;7366383;19;20036;-64
2024/02/06 02:06:16;;;;;;;0.10;0.10;;;;;;;12.60;71.43;99932.72;7365192;19;20022;-64
2024/02/06 02:08:44;;;;;;;0.10;0.10;;;;;;;12.60;71.37;99929.25;7365975;19;20104;-64
2024/02/06 02:11:09;;;;;;;;;;;;;;;12.65;70.44;99928.13;7364526;19;20526;-64
2024/02/06 02:13:35;;;;;;;0.10;0.10;;;;;;;12.62;71.39;99928.28;7364651;19;20008;-64
2024/02/06 02:16:00;;;;;;;0.10;0.10;;;;;;;12.61;71.76;99937.03;7371949;19;20036;-64
2024/02/06 02:18:33;;;;;;;0.10;0.10;;;;;;;12.54;71.28;99935.59;7373304;19;20051;-64
2024/02/06 02:20:59;;;;;;;0.10;0.10;;;;;;;12.53;71.34;99928.69;7364025;19;20644;-64
2024/02/06 02:23:24;;;;;;;0.10;0.10;;;;;;;12.57;71.95;99914.53;7368870;19;20011;-63
2024/02/06 02:25:51;;;;;;;0.10;0.10;;;;;;;12.56;72.41;99936.38;7365624;19;20039;-63
2024/02/06 02:28:16;;;;;;;0.10;0.10;;;;;;;12.51;72.21;99922.63;7364148;19;20787;-63
2024/02/06 02:30:43;;;;;;;0.10;0.10;;;;;;;12.50;72.16;99928.78;7368599;19;20078;-63
2024/02/06 02:33:09;;;;;;;0.05;0.05;;;;;;;12.35;72.54;99892.78;7372101;19;20032;-63
2024/02/06 02:35:35;;;;;;;0.08;0.08;;;;;;;12.42;72.70;99912.56;7377608;19;20003;-63
2024/02/06 02:38:00;;;;;;;0.10;0.10;;;;;;;12.32;72.13;99895.56;7372009;19;20021;-63
2024/02/06 02:40:25;;;;;;;0.10;0.10;;;;;;;12.33;73.30;99902.50;7371899;19;20376;-63
2024/02/06 02:42:52;;;;;;;0.10;0.10;;;;;;;12.29;73.65;99896.53;7370801;19;20003;-63
2024/02/06 02:45:17;;;;;;;0.10;0.10;;;;;;;12.27;73.41;99890.53;7370100;19;20324;-63
2024/02/06 02:47:46;;;;;;;0.10;0.10;;;;;;;12.27;73.45;99877.44;7373644;19;20011;-63
2024/02/06 02:50:11;;;;;;;0.10;0.10;;;;;;;12.26;72.78;99875.69;7373334;19;20018;-64
2024/02/06 02:52:37;;;;;;;0.10;0.10;;;;;;;12.26;73.45;99872.25;7370038;19;19998;-64
2024/02/06 02:55:03;;;;;;;0.10;0.10;;;;;;;12.24;73.26;99868.84;7371696;19;20002;-63
2024/02/06 02:57:28;;;;;;;0.10;0.10;;;;;;;12.15;73.50;99843.91;7371929;19;20007;-64
2024/02/06 02:59:54;;;;;;;0.10;0.10;;;;;;;12.27;73.63;99858.25;7368386;19;20017;-63
2024/02/06 03:02:19;;;;;;;0.10;0.10;;;;;;;12.28;73.07;99855.56;7371016;19;20010;-63
2024/02/06 03:04:45;;;;;;;0.10;0.10;;;;;;;12.30;73.52;99847.63;7368868;19;20045;-64
2024/02/06 03:07:10;;;;;;;0.10;0.10;;;;;;;12.33;72.78;99850.13;7369785;19;20014;-64
2024/02/06 03:09:36;;;;;;;0.17;0.17;;;;;;;12.34;73.33;99838.75;7371808;19;20021;-63
2024/02/06 03:12:01;;;;;;;0.10;0.10;;;;;;;12.34;73.57;99836.97;7374388;19;20033;-63
2024/02/06 03:14:27;;;;;;;0.10;0.10;;;;;;;12.35;73.32;99822.09;7370378;19;20869;-64
2024/02/06 03:16:52;;;;;;;0.10;0.10;;;;;;;12.37;73.30;99833.38;7370393;19;20109;-63
2024/02/06 03:19:18;;;;;;;0.10;0.10;;;;;;;12.39;72.81;99818.44;7370055;19;20007;-64
2024/02/06 03:21:43;;;;;;;0.10;0.10;;;;;;;12.40;73.22;99807.03;7369588;19;20045;-64
2024/02/06 03:24:09;;;;;;;0.10;0.10;;;;;;;12.22;72.51;99766.00;7368493;19;20014;-64
2024/02/06 03:26:35;;;;;;;0.10;0.10;;;;;;;12.41;73.30;99808.75;7368752;19;20067;-64
2024/02/06 03:29:01;;;;;;;0.10;0.10;;;;;;;12.41;73.02;99809.59;7369161;19;20876;-64
2024/02/06 03:31:26;;;;;;;0.10;0.10;;;;;;;12.41;73.15;99803.50;7367052;19;20505;-64
2024/02/06 03:33:52;;;;;;;0.10;0.10;;;;;;;12.40;73.28;99802.66;7370620;19;20019;-63
2024/02/06 03:36:17;;;;;;;0.10;0.10;;;;;;;12.44;73.19;99800.75;7370068;19;20014;-64
2024/02/06 03:38:43;;;;;;;0.10;0.10;;;;;;;12.46;72.80;99806.75;7366159;19;20007;-64
2024/02/06 03:41:09;;;;;;;0.10;0.10;;;;;;;12.46;72.67;99786.66;7367978;19;20245;-64
2024/02/06 03:43:34;;;;;;;0.10;0.10;;;;;;;12.47;72.93;99792.78;7368796;19;20010;-64
2024/02/06 03:46:00;;;;;;;0.10;0.10;;;;;;;12.49;72.81;99766.50;7368200;19;20011;-64
2024/02/06 03:48:26;;;;;;;0.10;0.10;;;;;;;12.41;72.88;99759.00;7368759;19;20485;-64
2024/02/06 03:50:51;;;;;;;0.10;0.10;;;;;;;12.41;72.65;99769.47;7369186;19;20889;-64
2024/02/06 03:53:17;;;;;;;0.10;0.10;;;;;;;12.37;73.34;99765.31;7366279;19;20018;-64
2024/02/06 03:55:42;;;;;;;0.10;0.10;;;;;;;12.39;72.88;99738.13;7369679;19;20009;-64
2024/02/06 03:58:09;;;;;;;0.10;0.10;;;;;;;12.49;73.17;99764.75;7368020;19;20015;-64
2024/02/06 04:00:35;;;;;;;0.10;0.10;;;;;;;12.51;73.42;99778.59;7369602;19;20031;-64
2024/02/06 04:03:00;;;;;;;0.10;0.10;;;;;;;12.46;72.76;99754.41;7367720;19;20010;-64
2024/02/06 04:05:26;;;;;;;0.10;0.10;;;;;;;12.54;72.56;99754.06;7369215;19;20045;-64
2024/02/06 04:07:51;;;;;;;0.10;0.10;;;;;;;12.54;72.85;99762.75;7369300;19;20014;-63
2024/02/06 04:10:17;;;;;;;0.10;0.10;;;;;;;12.50;72.69;99771.66;7370460;19;20023;-64
2024/02/06 04:12:43;;;;;;;0.10;0.10;;;;;;;12.52;72.73;99745.41;7371120;19;20010;-63
2024/02/06 04:15:09;;;;;;;0.10;0.10;;;;;;;12.53;72.84;99747.13;7363823;19;20490;-64
2024/02/06 04:17:34;;;;;;;0.10;0.10;;;;;;;12.51;72.72;99752.41;7365540;19;20031;-64
2024/02/06 04:20:00;;;;;;;0.10;0.10;;;;;;;12.50;72.73;99755.97;7368533;19;20006;-64
2024/02/06 04:22:25;;;;;;;0.10;0.10;;;;;;;12.48;72.86;99752.56;7370664;19;20011;-63
2024/02/06 04:24:51;;;;;;;0.10;0.10;;;;;;;12.24;73.54;99702.16;7364542;19;20014;-64
2024/02/06 04:27:16;;;;;;;0.10;0.10;;;;;;;12.36;73.11;99732.16;7368678;19;20022;-64
2024/02/06 04:29:42;;;;;;;0.10;0.10;;;;;;;12.25;73.53;99714.34;7362417;19;20010;-63
2024/02/06 04:32:07;;;;;;;0.10;0.10;;;;;;;12.32;73.57;99731.47;7367704;19;20025;-63
2024/02/06 04:34:33;;;;;;;0.10;0.10;;;;;;;12.28;73.62;99723.84;7374035;19;20016;-63
2024/02/06 04:36:59;;;;;;;0.10;0.10;;;;;;;12.23;74.09;99725.81;7368081;19;20047;-63
2024/02/06 04:39:24;;;;;;;0.10;0.10;;;;;;;12.16;74.28;99736.53;7367853;19;20002;-63
2024/02/06 04:41:50;;;;;;;0.10;0.10;;;;;;;12.14;73.86;99733.16;7366518;19;20011;-63
2024/02/06 04:44:15;;;;;;;0.10;0.10;;;;;;;12.09;73.89;99718.56;7373179;19;20007;-63
2024/02/06 04:46:41;;;;;;;0.10;0.10;;;;;;;11.90;74.46;99682.75;7372185;19;20509;-63
2024/02/06 04:49:06;;;;;;;0.10;0.10;;;;;;;12.05;74.47;99725.69;7366840;19;20035;-63
2024/02/06 04:51:33;;;;;;;0.20;0.20;;;;;;;12.04;73.82;99717.91;7366028;19;20015;-63
2024/02/06 04:53:58;;;;;;;0.10;0.10;;;;;;;12.02;73.84;99723.22;7365545;19;20018;-63
2024/02/06 04:56:24;;;;;;;0.10;0.10;;;;;;;11.88;74.80;99695.06;7367906;19;20511;-63
2024/02/06 04:58:50;;;;;;;0.10;0.10;;;;;;;11.99;74.95;99722.50;7366641;19;20090;-63
2024/02/06 05:01:17;;;;;;;0.10;0.10;;;;;;;11.84;74.85;99687.41;7367091;19;20096;-63
2024/02/06 05:03:43;;;;;;;0.10;0.10;;;;;;;11.87;75.21;99697.75;7366860;19;19998;-63
2024/02/06 05:06:11;;;;;;;0.10;0.10;;;;;;;11.95;75.17;99709.56;7365393;19;20017;-62
2024/02/06 05:08:37;;;;;;;0.10;0.10;;;;;;;11.94;75.27;99707.00;7366169;19;20006;-63
2024/02/06 05:11:03;;;;;;;0.10;0.10;;;;;;;11.93;74.98;99707.94;7368283;19;20792;-62
2024/02/06 05:13:29;;;;;;;0.10;0.10;;;;;;;11.92;75.25;99709.69;7367734;19;20071;-63
2024/02/06 05:15:54;;;;;;;0.10;0.10;;;;;;;11.93;74.82;99707.94;7364773;19;20705;-63
2024/02/06 05:18:19;;;;;;;0.10;0.10;;;;;;;11.91;75.41;99705.41;7365958;19;20010;-63
2024/02/06 05:20:45;;;;;;;0.10;0.10;;;;;;;11.90;75.63;99700.22;7364302;19;20104;-63
2024/02/06 05:23:11;;;;;;;0.10;0.10;;;;;;;11.90;75.65;99702.81;7368198;19;20044;-63
2024/02/06 05:25:36;;;;;;;0.10;0.10;;;;;;;11.91;75.50;99699.28;7365307;19;20011;-63
2024/02/06 05:28:02;;;;;;;0.10;0.10;;;;;;;11.63;75.42;99653.41;7367616;19;20010;-63
2024/02/06 05:30:27;;;;;;;0.10;0.10;;;;;;;11.90;75.59;99698.44;7365136;19;20022;-62
2024/02/06 05:32:53;;;;;;;0.10;0.10;;;;;;;11.88;75.80;99692.44;7374559;19;20353;-63
2024/02/06 05:35:18;;;;;;;0.13;0.13;;;;;;;11.89;75.78;99691.50;7373439;19;20486;-62
2024/02/06 05:37:44;;;;;;;0.10;0.10;;;;;;;11.89;75.94;99704.59;7370003;19;20015;-63
2024/02/06 05:40:12;;;;;;;0.10;0.10;;;;;;;11.89;76.25;99695.91;7368008;19;20011;-63
2024/02/06 05:42:37;;;;;;;0.10;0.10;;;;;;;11.89;75.86;99685.44;7365127;19;20006;-62
2024/02/06 05:45:04;;;;;;;0.10;0.10;;;;;;;11.80;75.67;99691.03;7365811;19;20010;-61
2024/02/06 05:47:30;;;;;;;0.08;0.08;;;;;;;11.90;75.38;99690.59;7362398;19;20006;-61
2024/02/06 05:49:55;;;;;;;0.10;0.10;;;;;;;11.79;76.01;99673.66;7365015;19;20370;-63
2024/02/06 05:52:21;;;;;;;0.10;0.10;;;;;;;11.89;76.04;99685.44;7364649;19;20333;-62
2024/02/06 05:54:46;;;;;;;0.10;0.10;;;;;;;11.90;75.47;99687.13;7364809;19;20406;-62
2024/02/06 05:57:12;;;;;;;0.10;0.10;;;;;;;11.78;75.77;99671.97;7364858;19;20006;-62
2024/02/06 05:59:38;;;;;;;0.10;0.10;;;;;;;11.89;76.44;99675.81;7366265;19;20014;-62
2024/02/06 06:02:04;;;;;;;0.10;0.10;;;;;;;11.87;76.32;99661.13;7365646;19;20014;-61
2024/02/06 06:04:29;;;;;;;0.20;0.20;;;;;;;11.91;75.52;99673.13;7373619;19;20744;-63
2024/02/06 06:06:55;;;;;;;0.10;0.10;;;;;;;11.84;76.02;99666.47;7372377;19;20018;-62
2024/02/06 06:09:20;;;;;;;0.10;0.10;;;;;;;11.92;75.97;99670.47;7373818;19;20014;-61
2024/02/06 06:11:46;;;;;;;0.10;0.10;;;;;;;11.91;75.78;99673.13;7378598;19;20006;-62
2024/02/06 06:14:11;;;;;;;0.10;0.10;;;;;;;11.94;75.91;99675.63;7374689;19;20759;-62
2024/02/06 06:16:36;;;;;;;0.20;0.20;;;;;;;11.94;76.43;99667.75;7372074;19;20020;-62
2024/02/06 06:19:02;;;;;;;0.00;0.00;;;;;;;11.95;76.31;99674.69;7373128;19;20014;-62
2024/02/06 06:21:27;;;;;;;0.00;0.00;;;;;;;11.97;76.02;99675.50;7371915;19;20009;-61
2024/02/06 06:23:53;;;;;;;0.10;0.10;;;;;;;11.98;75.96;99663.25;7375146;19;20033;-62
2024/02/06 06:26:18;;;;;;;0.10;0.10;;;;;;;11.94;76.47;99658.16;7379399;19;20015;-62
2024/02/06 06:28:44;;;;;;;0.10;0.10;;;;;;;11.98;75.94;99656.25;7373916;19;20422;-63
2024/02/06 06:31:09;;;;;;;0.17;0.17;;;;;;;12.00;76.39;99670.09;7370880;19;20019;-62
2024/02/06 06:33:35;;;;;;;0.10;0.10;;;;;;;12.00;76.07;99677.94;7373132;19;20024;-62
2024/02/06 06:36:00;;;;;;;0.15;0.15;;;;;;;12.03;75.77;99677.81;7371376;19;20018;-62
2024/02/06 06:38:26;;;;;;;0.10;0.10;;;;;;;12.04;76.14;99673.44;7371193;19;20435;-63
2024/02/06 06:40:51;;;;;;;0.10;0.10;;;;;;;12.04;76.38;99669.06;7370546;19;20025;-62
2024/02/06 06:43:17;;;;;;;0.10;0.10;;;;;;;12.06;76.23;99669.81;7377776;19;20018;-62
2024/02/06 06:45:42;;;;;;;0.10;0.10;;;;;;;12.07;76.54;99668.94;7376698;19;20009;-60
2024/02/06 06:48:08;;;;;;;0.10;0.10;;;;;;;12.08;76.64;99665.38;7371135;19;20014;-62
2024/02/06 06:50:33;;;;;;;0.10;0.10;;;;;;;11.94;76.55;99631.13;7373058;19;20014;-63
2024/02/06 06:52:59;;;;;;;0.00;0.00;;;;;;;11.96;76.72;99631.91;7378141;19;20533;-62
2024/02/06 06:55:24;;;;;;;0.10;0.10;;;;;;;12.11;76.85;99659.16;7377905;19;20006;-62
2024/02/06 06:57:50;;;;;;;0.10;0.10;;;;;;;12.16;76.20;99673.72;7369990;19;20046;-62
2024/02/06 07:00:16;;;;;;;0.10;0.10;;;;;;;12.19;76.20;99684.06;7371247;19;20010;-62
2024/02/06 07:02:41;;;;;;;0.10;0.10;;;;;;;12.08;76.64;99652.28;7370783;19;20501;-62
2024/02/06 07:05:10;;;;;;;0.10;0.10;;;;;;;12.26;76.60;99678.53;7367865;19;20011;-62
2024/02/06 07:07:36;;;;;;;0.10;0.10;;;;;;;12.14;76.66;99674.72;7370496;19;20494;-62
2024/02/06 07:10:02;;;;;;;0.10;0.10;;;;;;;12.29;76.47;99691.50;7371654;19;20780;-63
2024/02/06 07:12:27;;;;;;;0.10;0.10;;;;;;;12.32;76.54;99693.97;7371588;19;20022;-62
2024/02/06 07:14:52;;;;;;;0.10;0.10;;;;;;;12.34;76.16;99686.91;7369178;19;20033;-62
2024/02/06 07:17:18;;;;;;;0.10;0.10;;;;;;;12.36;76.50;99680.66;7369347;19;20018;-61
2024/02/06 07:19:43;;;;;;;0.15;0.15;;;;;;;12.31;76.40;99687.88;7368646;19;20006;-61
2024/02/06 07:22:09;;;;;;;0.10;0.10;;;;;;;12.35;76.51;99699.06;7369028;19;20021;-64
2024/02/06 07:24:34;;;;;;;0.10;0.10;;;;;;;12.42;76.71;99703.13;7368680;19;20006;-64
2024/02/06 07:27:00;;;;;;;0.10;0.10;;;;;;;12.41;76.86;99683.06;7369568;19;20392;-61
2024/02/06 07:29:26;;;;;;;0.10;0.10;;;;;;;12.44;77.32;99693.41;7368915;19;20296;-62
2024/02/06 07:31:51;;;;;;;0.10;0.10;;;;;;;12.46;76.75;99678.47;7362974;19;20014;-62
2024/02/06 07:34:18;;;;;;;0.10;0.10;;;;;;;12.49;76.17;99690.56;7375902;19;20018;-62
2024/02/06 07:36:44;;;;;;;0.10;0.10;;;;;;;12.49;76.83;99694.03;7368763;19;20006;-62
2024/02/06 07:39:10;;;;;;;0.10;0.10;;;;;;;12.40;76.80;99681.38;7367174;19;20014;-60
2024/02/06 07:41:36;;;;;;;0.15;0.15;;;;;;;12.49;76.94;99712.38;7369140;19;21262;-61
2024/02/06 07:44:03;;;;;;;0.10;0.10;;;;;;;12.51;76.31;99710.50;7370244;19;20129;-62
2024/02/06 07:46:29;;;;;;;0.10;0.10;;;;;;;12.51;76.66;99705.28;7367998;19;20017;-63
2024/02/06 07:48:56;;;;;;;0.10;0.10;;;;;;;12.52;76.91;99704.38;7370708;19;20040;-65
2024/02/06 07:51:24;;;;;;;0.10;0.10;;;;;;;12.38;76.67;99672.75;7375610;19;20128;-63
2024/02/06 07:53:50;;;;;;;0.10;0.10;;;;;;;12.50;76.93;99687.88;7376416;19;20018;-63
2024/02/06 07:56:17;;;;;;;0.10;0.10;;;;;;;12.53;76.89;99673.81;7375532;19;20010;-63
2024/02/06 07:58:43;;;;;;;0.15;0.15;;;;;;;12.56;76.58;99694.59;7369523;19;20760;-63
2024/02/06 08:01:11;;;;;;;0.10;0.10;;;;;;;12.54;76.81;99697.28;7369407;19;20101;-63
2024/02/06 08:03:36;;;;;;;;;;;;;;;12.59;75.83;99687.44;7368376;19;20490;-63
2024/02/06 08:06:01;;;;;;;0.10;0.10;;;;;;;12.55;76.72;99685.91;7366326;19;19918;-63
2024/02/06 08:08:27;;;;;;;0.10;0.10;;;;;;;12.52;77.07;99693.91;7369636;19;20109;-62
2024/02/06 08:10:53;;;;;;;0.10;0.10;;;;;;;12.55;77.26;99727.78;7367371;19;20532;-62
2024/02/06 08:13:18;;;;;;;0.10;0.10;;;;;;;12.55;77.56;99733.03;7368567;19;20018;-62
2024/02/06 08:15:43;;;;;;;0.10;0.10;;;;;;;12.53;77.64;99734.88;7368612;19;20034;-62
2024/02/06 08:18:10;;;;;;;0.10;0.10;;;;;;;12.55;77.54;99746.13;7368113;19;20838;-62
2024/02/06 08:20:35;;;;;;;0.10;0.10;;;;;;;12.51;77.90;99757.66;7367640;19;20010;-63
2024/02/06 08:23:01;;;;;;;0.10;0.10;;;;;;;12.49;77.67;99749.03;7366235;19;20011;-61
2024/02/06 08:25:28;;;;;;;0.10;0.10;;;;;;;12.45;77.83;99752.69;7365622;19;20022;-62
2024/02/06 08:27:53;;;;;;;0.10;0.10;;;;;;;12.40;78.28;99759.91;7367299;19;20013;-63
2024/02/06 08:30:19;;;;;;;0.10;0.10;;;;;;;12.35;78.14;99762.75;7365240;19;20493;-63
2024/02/06 08:32:44;;;;;;;0.10;0.10;;;;;;;12.24;78.16;99764.16;7368270;19;20010;-62
2024/02/06 08:35:10;;;;;;;0.10;0.10;;;;;;;12.27;78.28;99769.25;7366154;19;20320;-62
2024/02/06 08:37:35;;;;;;;0.15;0.15;;;;;;;12.23;78.46;99778.16;7367294;19;20015;-62
2024/02/06 08:40:05;;;;;;;0.10;0.10;;;;;;;12.15;78.58;99786.34;7366820;19;20006;-62
2024/02/06 08:42:31;;;;;;;0.10;0.10;;;;;;;12.12;78.63;99789.09;7367269;19;20047;-62
2024/02/06 08:44:56;;;;;;;0.10;0.10;;;;;;;12.08;78.83;99796.22;7366244;19;20002;-63
2024/02/06 08:47:23;;;;;;;0.10;0.10;;;;;;;12.04;79.25;99799.88;7369042;19;20534;-63
2024/02/06 08:49:49;;;;;;;0.10;0.10;;;;;;;11.91;78.61;99783.00;7366385;19;20010;-62
2024/02/06 08:52:15;;;;;;;0.10;0.10;;;;;;;11.97;79.06;99801.06;7368309;19;20853;-62
2024/02/06 08:54:41;;;;;;;0.08;0.08;;;;;;;11.94;79.10;99809.03;7367134;19;20003;-63
2024/02/06 08:57:06;;;;;;;0.10;0.10;;;;;;;11.87;79.47;99802.38;7366701;19;20178;-63
2024/02/06 08:59:32;;;;;;;0.10;0.10;;;;;;;11.83;79.12;99800.81;7366471;19;20007;-62
2024/02/06 09:02:01;;;;;;;0.10;0.10;;;;;;;11.72;79.25;99798.63;7366748;19;20024;-63
2024/02/06 09:04:26;;;;;;;0.10;0.10;;;;;;;11.59;79.17;99790.41;7366409;19;21225;-62
2024/02/06 09:06:52;;;;;;;0.10;0.10;;;;;;;11.68;79.26;99813.56;7367436;19;20003;-63
2024/02/06 09:09:18;;;;;;;0.10;0.10;;;;;;;11.44;79.30;99794.50;7365449;19;20050;-63
2024/02/06 09:11:44;;;;;;;0.10;0.10;;;;;;;11.40;79.28;99797.31;7366563;19;20022;-63
2024/02/06 09:14:09;;;;;;;0.10;0.10;;;;;;;11.56;79.61;99840.25;7364783;19;20014;-62
2024/02/06 09:16:35;;;;;;;0.10;0.10;;;;;;;11.24;79.47;99801.44;7365517;19;20002;-63
2024/02/06 09:19:00;;;;;;;0.10;0.10;;;;;;;11.48;79.41;99857.97;7365892;19;20381;-63
2024/02/06 09:21:25;;;;;;;0.10;0.10;;;;;;;11.43;79.39;99870.38;7367711;19;20101;-63
2024/02/06 09:23:51;;;;;;;0.10;0.10;;;;;;;11.37;79.29;99865.41;7366198;19;20021;-63
2024/02/06 09:26:17;;;;;;;0.10;0.10;;;;;;;11.36;79.37;99874.16;7365629;19;20019;-63
2024/02/06 09:28:43;;;;;;;0.10;0.10;;;;;;;11.31;79.28;99865.66;7364707;19;20374;-62
2024/02/06 09:31:08;;;;;;;0.10;0.10;;;;;;;11.27;79.57;99870.13;7363062;19;20014;-62
2024/02/06 09:33:34;;;;;;;0.10;0.10;;;;;;;11.24;79.74;99879.84;7367422;19;20015;-62
2024/02/06 09:36:02;;;;;;;0.10;0.10;;;;;;;11.20;79.70;99879.09;7365525;19;20007;-63
2024/02/06 09:38:28;;;;;;;;;;;;;;;11.22;78.53;99887.75;7365371;19;20525;-63
2024/02/06 09:40:54;;;;;;;0.10;0.10;;;;;;;11.15;79.76;99897.59;7365679;19;20339;-62
2024/02/06 09:43:20;;;;;;;0.10;0.10;;;;;;;11.12;79.61;99899.47;7365478;19;20050;-63
2024/02/06 09:45:46;;;;;;;0.10;0.10;;;;;;;11.07;80.04;99889.19;7362310;19;20018;-63
2024/02/06 09:48:12;;;;;;;0.10;0.10;;;;;;;10.90;79.72;99850.66;7364863;19;20010;-63
2024/02/06 09:50:40;;;;;;;0.00;0.00;;;;;;;11.01;80.30;99876.38;7362338;19;20193;-62
2024/02/06 09:53:08;;;;;;;0.00;0.00;;;;;;;10.83;80.18;99856.16;7369100;19;20018;-63
2024/02/06 09:55:35;;;;;;;0.10;0.10;;;;;;;10.84;80.42;99882.19;7364954;19;20081;-63
2024/02/06 09:58:00;;;;;;;0.10;0.10;;;;;;;10.94;80.63;99893.16;7364867;19;20843;-63
2024/02/06 10:00:26;;;;;;;0.10;0.10;;;;;;;10.83;80.33;99874.44;7365063;19;20056;-63
2024/02/06 10:02:56;;;;;;;0.10;0.10;;;;;;;10.83;80.43;99879.66;7365697;19;20051;-63
2024/02/06 10:05:26;;;;;;;0.10;0.10;;;;;;;10.87;80.26;99889.09;7366276;19;20010;-62
2024/02/06 10:07:53;;;;;;;0.10;0.10;;;;;;;10.90;80.62;99902.03;7362435;19;20118;-63
2024/02/06 10:10:19;;;;;;;0.08;0.08;;;;;;;10.89;80.74;99902.91;7365993;19;20002;-63
2024/02/06 10:12:45;;;;;;;0.10;0.10;;;;;;;10.86;80.35;99909.13;7364370;19;20117;-62
2024/02/06 10:15:23;;;;;;;0.10;0.10;;;;;;;10.72;80.25;99885.28;7364310;19;20102;-63
2024/02/06 10:17:49;;;;;;;0.10;0.10;;;;;;;10.72;80.66;99902.69;7363993;19;20014;-62
2024/02/06 10:20:15;;;;;;;0.10;0.10;;;;;;;10.84;80.87;99923.13;7364895;19;20713;-63
2024/02/06 10:22:41;;;;;;;0.00;0.00;;;;;;;10.81;81.14;99924.13;7364497;19;20010;-63
2024/02/06 10:25:10;;;;;;;0.10;0.10;;;;;;;10.84;80.73;99933.59;7361950;19;20801;-63
2024/02/06 10:27:35;;;;;;;0.10;0.10;;;;;;;10.81;80.84;99933.72;7363019;19;20033;-63
2024/02/06 10:30:03;;;;;;;0.10;0.10;;;;;;;10.87;81.23;99938.72;7363717;19;20023;-63
2024/02/06 10:32:35;;;;;;;0.00;0.00;;;;;;;10.87;81.09;99939.56;7364146;19;20014;-63
2024/02/06 10:35:01;;;;;;;0.10;0.10;;;;;;;10.88;80.72;99946.47;7363560;19;20019;-63
2024/02/06 10:37:27;;;;;;;0.10;0.10;;;;;;;10.90;81.15;99951.66;7364466;19;20018;-63
2024/02/06 10:39:52;;;;;;;0.10;0.10;;;;;;;10.91;80.74;99948.16;7364932;19;20467;-63
2024/02/06 10:42:20;;;;;;;0.10;0.10;;;;;;;10.93;81.16;99946.31;7364124;19;20093;-63
2024/02/06 10:44:46;;;;;;;0.10;0.10;;;;;;;10.93;80.98;99954.16;7362876;19;20015;-63
2024/02/06 10:47:15;;;;;;;0.10;0.10;;;;;;;10.93;80.90;99954.16;7366082;19;20462;-63
2024/02/06 10:49:41;;;;;;;0.10;0.10;;;;;;;10.92;81.08;99957.69;7365666;19;20512;-62
2024/02/06 10:52:08;;;;;;;0.00;0.00;;;;;;;10.96;80.98;99968.88;7371696;19;20094;-63
2024/02/06 10:54:34;;;;;;;0.10;0.10;;;;;;;10.97;81.00;99966.19;7370379;19;20011;-63
2024/02/06 10:57:07;;;;;;;0.10;0.10;;;;;;;10.91;80.94;99954.22;7370738;19;20007;-63
2024/02/06 10:59:46;;;;;;;0.10;0.10;;;;;;;10.88;80.71;99963.91;7371039;19;20014;-63
2024/02/06 11:02:28;;;;;;;0.10;0.10;;;;;;;11.02;80.79;99974.72;7368291;19;20010;-63
2024/02/06 11:05:16;;;;;;;0.10;0.10;;;;;;;10.96;80.55;99963.66;7375209;19;20019;-63
2024/02/06 11:07:52;;;;;;;0.10;0.10;;;;;;;11.04;81.06;99983.34;7377229;19;20764;-63
2024/02/06 11:10:21;;;;;;;0.10;0.10;;;;;;;11.02;80.86;99979.94;7373506;19;20010;-63
2024/02/06 11:12:53;;;;;;;0.00;0.00;;;;;;;11.05;80.75;99990.31;7370866;19;20130;-63
2024/02/06 11:15:19;;;;;;;0.10;0.10;;;;;;;11.06;80.75;99991.16;7369053;19;20014;-63
2024/02/06 11:17:46;;;;;;;0.10;0.10;;;;;;;11.02;80.83;99990.41;7368918;19;20007;-63
2024/02/06 11:20:14;;;;;;;0.03;0.03;;;;;;;11.07;80.71;99988.47;7368531;19;20515;-63
2024/02/06 11:22:41;;;;;;;0.10;0.10;;;;;;;11.07;81.02;99988.47;7370341;19;20029;-63
2024/02/06 11:25:15;;;;;;;0.10;0.10;;;;;;;11.03;80.69;99989.50;7367836;19;20011;-63
2024/02/06 11:27:41;;;;;;;0.10;0.10;;;;;;;11.12;80.79;99999.63;7370362;19;20010;-63
2024/02/06 11:30:08;;;;;;;0.10;0.10;;;;;;;11.12;80.70;100002.22;7368477;19;20030;-63